createdAt,value
2019-04-21T00:02:01.572Z,102451.33
2019-04-21T00:04:42.989Z,102452.14
2019-04-21T00:07:22.525Z,102452.73
2019-04-21T00:09:53.415Z,102442.54
2019-04-21T00:12:18.066Z,102448.63
2019-04-21T00:14:43.579Z,102443.56
2019-04-21T00:17:07.853Z,102444.05
2019-04-21T00:19:39.541Z,102436.87
2019-04-21T00:22:19.130Z,102437.09
2019-04-21T00:24:50.738Z,102437.92
2019-04-21T00:27:26.601Z,102437.59
2019-04-21T00:30:01.772Z,102435.52
2019-04-21T00:32:25.434Z,102434.58
2019-04-21T00:34:50.306Z,102424.73
2019-04-21T00:37:20.734Z,102424.59
2019-04-21T00:40:06.393Z,102421.17
2019-04-21T00:42:29.096Z,102411.81
2019-04-21T00:44:58.952Z,102407.55
2019-04-21T00:47:34.048Z,102409.92
2019-04-21T00:50:08.118Z,102402.13
2019-04-21T00:55:21.796Z,102386.36
2019-04-21T00:57:44.948Z,102383.23
2019-04-21T01:00:11.818Z,102387.20
2019-04-21T01:02:47.250Z,102384.47
2019-04-21T01:05:18.261Z,102381.37
2019-04-21T01:07:42.457Z,102375.28
2019-04-21T01:10:06.549Z,102377.98
2019-04-21T01:12:41.794Z,102373.89
2019-04-21T01:15:22.706Z,102365.92
2019-04-21T01:17:47.841Z,102362.45
2019-04-21T01:20:06.504Z,102363.58
2019-04-21T01:22:24.333Z,102358.08
2019-04-21T01:25:00.041Z,102351.09
2019-04-21T01:27:46.595Z,102339.77
2019-04-21T01:30:19.245Z,102346.27
2019-04-21T01:32:51.251Z,102333.59
2019-04-21T01:35:16.539Z,102341.83
2019-04-21T01:37:52.783Z,102341.83
2019-04-21T01:40:25.663Z,102334.26
2019-04-21T01:42:48.416Z,102338.69
2019-04-21T01:45:18.895Z,102336.06
2019-04-21T01:47:46.433Z,102337.08
2019-04-21T01:50:07.081Z,102334.55
2019-04-21T01:57:59.364Z,102328.72
2019-04-21T02:00:45.147Z,102328.72
2019-04-21T02:03:34.451Z,102318.02
2019-04-21T02:05:54.485Z,102318.86
2019-04-21T02:08:20.109Z,102317.60
2019-04-21T02:10:57.154Z,102317.60
2019-04-21T02:13:17.119Z,102312.73
2019-04-21T02:15:59.404Z,102313.47
2019-04-21T02:18:25.545Z,102312.79
2019-04-21T02:20:41.197Z,102310.16
2019-04-21T02:25:57.449Z,102306.12
2019-04-21T02:28:29.800Z,102295.16
2019-04-21T02:31:18.620Z,102293.12
2019-04-21T02:33:50.705Z,102293.52
2019-04-21T02:38:44.880Z,102293.61
2019-04-21T02:41:28.348Z,102287.39
2019-04-21T02:43:38.412Z,102290.59
2019-04-21T02:48:46.951Z,102286.29
2019-04-21T02:51:15.259Z,102280.34
2019-04-21T02:56:11.202Z,102274.40
2019-04-21T02:58:52.338Z,102282.94
2019-04-21T03:01:31.272Z,102271.29
2019-04-21T03:04:00.654Z,102270.95
2019-04-21T03:09:29.612Z,102263.67
2019-04-21T03:11:56.406Z,102263.55
2019-04-21T03:16:47.229Z,102253.19
2019-04-21T03:19:28.492Z,102248.78
2019-04-21T03:21:59.277Z,102243.02
2019-04-21T03:24:32.905Z,102238.86
2019-04-21T03:27:10.399Z,102230.41
2019-04-21T03:29:28.453Z,102229.14
2019-04-21T03:39:30.913Z,102229.83
2019-04-21T03:52:03.793Z,102226.45
2019-04-21T03:54:39.096Z,102225.20
2019-04-21T03:59:36.800Z,102211.82
2019-04-21T04:02:28.652Z,102210.27
2019-04-21T04:04:49.598Z,102203.06
2019-04-21T04:10:07.785Z,102209.14
2019-04-21T04:15:03.081Z,102206.70
2019-04-21T04:17:32.598Z,102201.20
2019-04-21T04:20:09.147Z,102204.74
2019-04-21T04:22:39.345Z,102199.87
2019-04-21T04:25:14.410Z,102120.99
2019-04-21T04:27:59.924Z,102206.63
2019-04-21T04:30:12.397Z,102206.63
2019-04-21T04:37:51.061Z,102201.08
2019-04-21T04:42:56.331Z,102192.63
2019-04-21T04:47:49.904Z,102200.29
2019-04-21T04:50:22.652Z,102199.92
2019-04-21T05:05:43.978Z,102195.74
2019-04-21T05:08:00.226Z,102203.10
2019-04-21T05:12:53.189Z,102191.82
2019-04-21T05:15:25.342Z,102185.67
2019-04-21T05:17:57.697Z,102193.98
2019-04-21T05:22:53.274Z,102180.23
2019-04-21T05:25:18.553Z,102180.09
2019-04-21T05:27:47.220Z,102180.48
2019-04-21T05:33:20.839Z,102179.30
2019-04-21T05:35:49.008Z,102178.23
2019-04-21T05:38:30.388Z,102174.44
2019-04-21T05:40:52.286Z,102173.81
2019-04-21T05:43:34.807Z,102172.82
2019-04-21T05:46:21.216Z,102162.40
2019-04-21T05:48:35.122Z,102165.17
2019-04-21T05:51:01.990Z,102167.66
2019-04-21T05:53:53.561Z,102170.94
2019-04-21T05:56:12.840Z,102160.13
2019-04-21T05:58:39.145Z,102164.33
2019-04-21T06:01:19.435Z,102159.06
2019-04-21T06:03:44.906Z,102159.06
2019-04-21T06:06:21.944Z,102155.36
2019-04-21T06:08:53.661Z,102154.38
2019-04-21T06:11:14.824Z,102156.13
2019-04-21T06:13:48.609Z,102162.37
2019-04-21T06:16:17.408Z,102166.48
2019-04-21T06:18:48.003Z,102159.43
2019-04-21T06:21:26.360Z,102160.17
2019-04-21T06:23:57.284Z,102162.91
2019-04-21T06:26:44.736Z,102162.93
2019-04-21T06:28:51.826Z,102166.27
2019-04-21T06:31:29.884Z,102166.27
2019-04-21T06:36:37.536Z,102151.53
2019-04-21T06:44:09.510Z,102158.03
2019-04-21T06:46:35.221Z,102155.18
2019-04-21T06:49:02.764Z,102151.84
2019-04-21T06:51:32.381Z,102148.94
2019-04-21T06:59:06.414Z,102148.03
2019-04-21T07:01:36.874Z,102154.28
2019-04-21T07:04:11.760Z,102152.66
2019-04-21T07:06:43.611Z,102153.33
2019-04-21T07:09:16.052Z,102153.09
2019-04-21T07:11:36.832Z,102148.23
2019-04-21T07:16:46.359Z,102148.50
2019-04-21T07:19:27.810Z,102147.00
2019-04-21T07:21:38.541Z,102139.06
2019-04-21T07:24:14.767Z,102135.33
2019-04-21T07:26:44.510Z,102140.12
2019-04-21T07:29:17.134Z,102133.51
2019-04-21T07:31:47.266Z,102136.48
2019-04-21T07:34:16.018Z,102131.03
2019-04-21T07:36:52.501Z,102131.11
2019-04-21T07:39:10.292Z,102127.84
2019-04-21T07:41:43.756Z,102121.05
2019-04-21T07:44:15.407Z,102122.72
2019-04-21T07:46:41.677Z,102119.40
2019-04-21T07:49:43.624Z,102116.66
2019-04-21T07:52:33.469Z,102116.12
2019-04-21T07:55:06.000Z,102116.39
2019-04-21T07:57:27.622Z,102116.66
2019-04-21T08:00:06.574Z,102114.50
2019-04-21T08:02:29.401Z,102104.90
2019-04-21T08:05:02.683Z,102105.45
2019-04-21T08:07:37.878Z,102108.96
2019-04-21T08:09:57.264Z,102110.81
2019-04-21T08:12:25.643Z,102108.39
2019-04-21T08:15:09.675Z,102104.77
2019-04-21T08:17:36.500Z,102104.47
2019-04-21T08:20:13.848Z,102101.94
2019-04-21T08:25:30.786Z,102096.67
2019-04-21T08:28:22.464Z,102097.39
2019-04-21T08:30:45.817Z,102099.02
2019-04-21T08:33:24.896Z,102093.28
2019-04-21T08:36:20.825Z,102085.65
2019-04-21T08:38:45.816Z,102088.01
2019-04-21T08:41:40.864Z,102078.63
2019-04-21T08:43:57.475Z,102071.11
2019-04-21T08:46:42.605Z,102069.34
2019-04-21T08:49:15.837Z,102067.16
2019-04-21T08:52:06.766Z,102067.13
2019-04-21T08:54:26.500Z,102069.44
2019-04-21T08:57:35.711Z,102060.75
2019-04-21T09:00:05.368Z,102059.98
2019-04-21T09:02:47.493Z,102059.06
2019-04-21T09:05:17.633Z,102055.12
2019-04-21T09:07:53.669Z,102051.52
2019-04-21T09:10:22.085Z,102046.89
2019-04-21T09:12:51.777Z,102039.94
2019-04-21T09:15:19.268Z,102040.08
2019-04-21T09:17:44.498Z,102034.52
2019-04-21T09:20:25.091Z,102034.30
2019-04-21T09:22:54.226Z,102029.32
2019-04-21T09:25:33.586Z,102025.16
2019-04-21T09:27:55.020Z,102026.23
2019-04-21T09:30:11.033Z,102018.89
2019-04-21T09:32:40.396Z,102015.03
2019-04-21T09:35:16.632Z,102014.07
2019-04-21T09:37:54.508Z,102004.02
2019-04-21T09:40:25.074Z,102004.03
2019-04-21T09:42:55.953Z,101993.52
2019-04-21T09:45:22.136Z,101986.52
2019-04-21T09:48:00.427Z,101982.63
2019-04-21T09:50:22.216Z,101978.63
2019-04-21T09:52:58.251Z,101976.27
2019-04-21T09:55:26.146Z,101978.47
2019-04-21T09:58:29.243Z,101967.89
2019-04-21T10:01:17.224Z,101966.67
2019-04-21T10:03:53.307Z,101967.61
2019-04-21T10:06:32.910Z,101964.92
2019-04-21T10:09:21.826Z,101959.78
2019-04-21T10:12:05.577Z,101953.98
2019-04-21T10:14:47.352Z,101947.31
2019-04-21T10:17:27.708Z,101938.87
2019-04-21T10:19:58.718Z,101937.23
2019-04-21T10:22:28.845Z,101932.20
2019-04-21T10:24:58.528Z,101932.20
2019-04-21T10:27:27.471Z,101926.54
2019-04-21T10:29:58.050Z,101926.30
2019-04-21T10:32:28.193Z,101924.98
2019-04-21T10:34:57.073Z,101925.58
2019-04-21T10:37:40.088Z,101919.89
2019-04-21T10:39:57.717Z,101923.39
2019-04-21T10:42:27.021Z,101927.92
2019-04-21T10:44:56.852Z,101917.11
2019-04-21T10:47:26.941Z,101913.14
2019-04-21T10:49:55.955Z,101907.39
2019-04-21T10:52:29.707Z,101906.72
2019-04-21T10:55:18.120Z,101906.09
2019-04-21T10:57:32.657Z,101900.75
2019-04-21T11:00:01.598Z,101892.48
2019-04-21T11:02:32.929Z,101888.52
2019-04-21T11:05:02.955Z,101880.33
2019-04-21T11:08:07.728Z,101875.17
2019-04-21T11:10:25.779Z,101878.23
2019-04-21T11:12:54.748Z,101872.84
2019-04-21T11:15:25.294Z,101871.83
2019-04-21T11:17:55.566Z,101868.45
2019-04-21T11:20:24.835Z,101864.56
2019-04-21T11:22:53.841Z,101855.41
2019-04-21T11:25:24.153Z,101856.78
2019-04-21T11:27:53.199Z,101852.81
2019-04-21T11:30:23.302Z,101849.91
2019-04-21T11:32:57.072Z,101849.91
2019-04-21T11:35:27.528Z,101840.88
2019-04-21T11:38:07.246Z,101841.11
2019-04-21T11:40:29.651Z,101829.94
2019-04-21T11:42:59.741Z,101827.42
2019-04-21T11:45:36.635Z,101832.17
2019-04-21T11:48:10.376Z,101824.89
2019-04-21T11:50:41.351Z,101826.04
2019-04-21T11:53:10.693Z,101825.68
2019-04-21T11:55:43.594Z,101822.86
2019-04-21T11:58:10.186Z,101816.65
2019-04-21T12:00:42.168Z,101813.23
2019-04-21T12:03:14.006Z,101801.80
2019-04-21T12:05:47.767Z,101796.77
2019-04-21T12:08:27.405Z,101799.33
2019-04-21T12:10:49.278Z,101798.23
2019-04-21T12:13:18.365Z,101788.31
2019-04-21T12:15:49.204Z,101797.95
2019-04-21T12:18:19.801Z,101791.06
2019-04-21T12:20:51.618Z,101785.69
2019-04-21T12:23:27.036Z,101784.57
2019-04-21T12:25:59.186Z,101776.22
2019-04-21T12:28:28.171Z,101766.38
2019-04-21T12:30:57.910Z,101766.06
2019-04-21T12:33:29.660Z,101765.95
2019-04-21T12:35:59.907Z,101762.41
2019-04-21T12:38:40.384Z,101752.77
2019-04-21T12:41:06.543Z,101747.78
2019-04-21T12:43:36.900Z,101752.15
2019-04-21T12:46:05.912Z,101753.68
2019-04-21T12:48:35.820Z,101748.09
2019-04-21T12:51:12.172Z,101737.36
2019-04-21T12:53:41.860Z,101745.45
2019-04-21T12:56:11.787Z,101730.10
2019-04-21T12:58:41.579Z,101731.86
2019-04-21T13:01:10.561Z,101717.45
2019-04-21T13:03:39.734Z,101711.55
2019-04-21T13:06:09.792Z,101714.92
2019-04-21T13:08:45.695Z,101706.66
2019-04-21T13:11:15.031Z,101700.84
2019-04-21T13:13:44.314Z,101689.86
2019-04-21T13:16:13.828Z,101694.73
2019-04-21T13:18:42.636Z,101683.64
2019-04-21T13:21:12.067Z,101679.41
2019-04-21T13:23:41.097Z,101679.23
2019-04-21T13:26:27.617Z,101674.88
2019-04-21T13:28:50.122Z,101669.10
2019-04-21T13:31:20.244Z,101664.80
2019-04-21T13:33:50.175Z,101660.44
2019-04-21T13:36:19.239Z,101664.14
2019-04-21T13:39:34.773Z,101652.14
2019-04-21T13:41:42.850Z,101650.97
2019-04-21T13:44:15.714Z,101643.00
2019-04-21T13:46:45.279Z,101645.91
2019-04-21T13:49:14.546Z,101643.50
2019-04-21T13:51:43.975Z,101634.13
2019-04-21T13:54:13.870Z,101641.73
2019-04-21T13:56:42.878Z,101634.52
2019-04-21T13:59:11.697Z,101633.76
2019-04-21T14:01:41.381Z,101627.80
2019-04-21T14:04:11.532Z,101622.06
2019-04-21T14:06:40.729Z,101616.44
2019-04-21T14:09:11.530Z,101614.36
2019-04-21T14:11:41.134Z,101610.08
2019-04-21T14:14:10.438Z,101603.30
2019-04-21T14:16:40.146Z,101601.22
2019-04-21T14:19:09.741Z,101592.86
2019-04-21T14:21:39.161Z,101595.76
2019-04-21T14:24:08.917Z,101588.59
2019-04-21T14:26:38.541Z,101589.03
2019-04-21T14:29:07.820Z,101580.90
2019-04-21T14:31:38.227Z,101577.59
2019-04-21T14:34:08.034Z,101572.31
2019-04-21T14:36:37.092Z,101563.41
2019-04-21T14:39:10.391Z,101555.15
2019-04-21T14:41:40.310Z,101549.52
2019-04-21T14:44:09.276Z,101553.01
2019-04-21T14:46:39.842Z,101548.47
2019-04-21T14:49:19.490Z,101551.38
2019-04-21T14:51:52.670Z,101546.58
2019-04-21T14:54:24.706Z,101545.13
2019-04-21T14:56:53.629Z,101545.83
2019-04-21T14:59:22.382Z,101545.33
2019-04-21T15:01:53.675Z,101536.31
2019-04-21T15:04:24.041Z,101536.99
2019-04-21T15:06:53.107Z,101535.67
2019-04-21T15:09:23.169Z,101528.36
2019-04-21T15:11:53.893Z,101531.19
2019-04-21T15:14:26.171Z,101526.23
2019-04-21T15:16:56.727Z,101525.89
2019-04-21T15:19:26.575Z,101523.97
2019-04-21T15:21:56.681Z,101516.59
2019-04-21T15:24:26.648Z,101517.63
2019-04-21T15:26:56.770Z,101516.20
2019-04-21T15:29:26.760Z,101511.53
2019-04-21T15:31:56.758Z,101500.02
2019-04-21T15:34:27.224Z,101497.70
2019-04-21T15:36:57.803Z,101502.00
2019-04-21T15:39:27.894Z,101500.78
2019-04-21T15:41:56.845Z,101500.06
2019-04-21T15:44:27.070Z,101495.25
2019-04-21T15:46:56.165Z,101493.89
2019-04-21T15:49:38.610Z,101488.43
2019-04-21T15:51:58.168Z,101488.34
2019-04-21T15:54:28.811Z,101483.06
2019-04-21T15:57:00.639Z,101478.09
2019-04-21T15:59:32.485Z,101473.52
2019-04-21T16:02:04.355Z,101468.77
2019-04-21T16:04:34.655Z,101464.52
2019-04-21T16:07:05.924Z,101469.39
2019-04-21T16:09:37.529Z,101466.70
2019-04-21T16:12:07.449Z,101468.98
2019-04-21T16:14:38.614Z,101460.50
2019-04-21T16:17:09.495Z,101455.80
2019-04-21T16:19:41.605Z,101453.19
2019-04-21T16:22:10.884Z,101448.76
2019-04-21T16:24:39.949Z,101452.35
2019-04-21T16:27:10.738Z,101447.27
2019-04-21T16:29:39.603Z,101448.56
2019-04-21T16:32:09.113Z,101446.94
2019-04-21T16:34:47.319Z,101442.57
2019-04-21T16:37:13.780Z,101438.33
2019-04-21T16:39:43.330Z,101437.44
2019-04-21T16:42:12.219Z,101433.37
2019-04-21T16:44:41.045Z,101435.83
2019-04-21T16:47:09.801Z,101430.21
2019-04-21T16:49:39.929Z,101427.52
2019-04-21T16:52:16.395Z,101425.58
2019-04-21T16:54:47.747Z,101426.23
2019-04-21T16:57:19.853Z,101419.98
2019-04-21T16:59:54.860Z,101424.05
2019-04-21T17:02:24.810Z,101418.04
2019-04-21T17:04:56.273Z,101418.70
2019-04-21T17:07:26.267Z,101421.57
2019-04-21T17:09:55.151Z,101422.95
2019-04-21T17:12:24.577Z,101417.44
2019-04-21T17:15:10.383Z,101416.83
2019-04-21T17:17:50.059Z,101413.58
2019-04-21T17:20:13.559Z,101405.98
2019-04-21T17:22:29.338Z,101400.59
2019-04-21T17:24:58.294Z,101401.22
2019-04-21T17:27:27.247Z,101402.53
2019-04-21T17:29:56.748Z,101399.63
2019-04-21T17:32:32.101Z,101398.30
2019-04-21T17:34:56.374Z,101393.76
2019-04-21T17:37:26.967Z,101393.58
2019-04-21T17:39:58.757Z,101386.13
2019-04-21T17:42:37.397Z,101395.74
2019-04-21T17:45:06.600Z,101390.13
2019-04-21T17:47:46.841Z,101387.78
2019-04-21T17:50:23.404Z,101389.53
2019-04-21T17:53:03.150Z,101391.69
2019-04-21T17:55:33.791Z,101389.83
2019-04-21T17:58:14.967Z,101396.34
2019-04-21T18:01:10.234Z,101391.39
2019-04-21T18:03:56.328Z,101396.96
2019-04-21T18:05:59.512Z,101396.96
2019-04-21T18:08:32.617Z,101402.60
2019-04-21T18:10:54.423Z,101396.64
2019-04-21T18:13:19.105Z,101396.77
2019-04-21T18:15:55.805Z,101402.01
2019-04-21T18:18:15.146Z,101397.12
2019-04-21T18:21:02.851Z,101398.21
2019-04-21T18:23:54.786Z,101393.13
2019-04-21T18:26:28.860Z,101397.92
2019-04-21T18:28:46.646Z,101404.91
2019-04-21T18:31:16.603Z,101405.31
2019-04-21T18:33:58.053Z,101401.03
2019-04-21T18:36:37.820Z,101401.38
2019-04-21T18:39:33.850Z,101403.08
2019-04-21T18:42:17.609Z,101410.66
2019-04-21T18:45:05.117Z,101399.30
2019-04-21T18:47:21.128Z,101403.64
2019-04-21T18:49:44.113Z,101405.24
2019-04-21T18:52:42.820Z,101400.86
2019-04-21T18:55:09.563Z,101409.36
2019-04-21T18:57:35.226Z,101412.59
2019-04-21T18:59:57.550Z,101412.87
2019-04-21T19:02:28.023Z,101408.11
2019-04-21T19:05:04.360Z,101408.23
2019-04-21T19:07:45.567Z,101406.00
2019-04-21T19:13:20.413Z,101411.09
2019-04-21T19:15:20.220Z,101422.23
2019-04-21T19:20:38.764Z,101428.15
2019-04-21T19:23:26.679Z,101427.14
2019-04-21T19:26:04.906Z,101425.61
2019-04-21T19:28:16.396Z,101424.08
2019-04-21T19:30:56.448Z,101423.61
2019-04-21T19:33:21.628Z,101423.67
2019-04-21T19:35:37.113Z,101425.88
2019-04-21T19:38:10.099Z,101420.97
2019-04-21T19:40:50.831Z,101426.72
2019-04-21T19:43:29.404Z,101425.66
2019-04-21T19:45:56.360Z,101424.09
2019-04-21T19:48:24.048Z,101426.00
2019-04-21T19:50:57.850Z,101425.75
2019-04-21T19:53:25.478Z,101421.39
2019-04-21T19:55:40.497Z,101416.77
2019-04-21T19:58:10.653Z,101414.87
2019-04-21T20:00:40.223Z,101410.50
2019-04-21T20:03:10.375Z,101411.60
2019-04-21T20:05:47.663Z,101410.45
2019-04-21T20:08:25.037Z,101407.45
2019-04-21T20:10:59.385Z,101412.87
2019-04-21T20:13:40.527Z,101404.41
2019-04-21T20:16:03.795Z,101407.39
2019-04-21T20:18:24.429Z,101399.76
2019-04-21T20:20:43.826Z,101399.79
2019-04-21T20:23:19.297Z,101391.01
2019-04-21T20:25:49.055Z,101390.72
2019-04-21T20:28:22.161Z,101390.14
2019-04-21T20:31:03.782Z,101394.16
2019-04-21T20:33:48.766Z,101390.31
2019-04-21T20:36:03.334Z,101392.44
2019-04-21T20:38:28.375Z,101394.53
2019-04-21T20:40:53.686Z,101386.35
2019-04-21T20:43:40.120Z,101387.44
2019-04-21T20:46:23.762Z,101386.59
2019-04-21T20:48:30.566Z,101382.28
2019-04-21T20:51:05.077Z,101383.40
2019-04-21T20:53:36.194Z,101380.94
2019-04-21T20:56:05.208Z,101382.27
2019-04-21T20:58:34.350Z,101379.25
2019-04-21T21:03:39.093Z,101377.80
2019-04-21T21:06:08.084Z,101382.05
2019-04-21T21:08:40.137Z,101376.58
2019-04-21T21:11:07.068Z,101375.42
2019-04-21T21:13:42.840Z,101380.00
2019-04-21T21:16:20.207Z,101379.58
2019-04-21T21:21:11.371Z,101376.13
2019-04-21T21:23:42.874Z,101377.89
2019-04-21T21:26:16.089Z,101375.63
2019-04-21T21:28:40.265Z,101373.84
2019-04-21T21:31:13.365Z,101374.33
2019-04-21T21:33:52.515Z,101371.61
2019-04-21T21:36:33.649Z,101372.30
2019-04-21T21:38:51.718Z,101375.70
2019-04-21T21:41:11.857Z,101377.18
2019-04-21T21:43:31.301Z,101367.80
2019-04-21T21:46:04.865Z,101367.80
2019-04-21T21:48:49.189Z,101368.09
2019-04-21T21:51:11.090Z,101368.33
2019-04-21T21:53:34.748Z,101366.23
2019-04-21T21:56:02.936Z,101359.66
2019-04-21T21:58:37.141Z,101364.63
2019-04-21T22:01:06.400Z,101369.16
2019-04-21T22:03:38.055Z,101366.78
2019-04-21T22:06:09.909Z,101366.78
2019-04-21T22:08:34.449Z,101363.02
2019-04-21T22:11:03.372Z,101359.68
2019-04-21T22:13:42.158Z,101362.42
2019-04-21T22:16:08.893Z,101363.22
2019-04-21T22:18:51.141Z,101357.70
2019-04-21T22:21:14.289Z,101355.45
2019-04-21T22:23:43.725Z,101352.83
2019-04-21T22:26:05.436Z,101351.81
2019-04-21T22:28:35.803Z,101350.52
2019-04-21T22:31:14.375Z,101351.00
2019-04-21T22:33:44.926Z,101318.42
2019-04-21T22:36:22.014Z,101347.40
2019-04-21T22:38:50.981Z,101350.26
2019-04-21T22:41:19.280Z,101351.50
2019-04-21T22:43:43.755Z,101348.98
2019-04-21T22:46:11.912Z,101344.58
2019-04-21T22:48:40.842Z,101345.37
2019-04-21T22:51:20.348Z,101334.55
2019-04-21T22:53:46.512Z,101338.75
2019-04-21T22:56:17.635Z,101333.83
2019-04-21T22:58:42.913Z,101332.97
2019-04-21T23:01:13.229Z,101331.19
2019-04-21T23:03:50.276Z,101334.34
2019-04-21T23:06:19.205Z,101331.17
2019-04-21T23:08:45.752Z,101327.38
2019-04-21T23:11:16.686Z,101326.46
2019-04-21T23:13:53.785Z,101323.85
2019-04-21T23:16:21.470Z,101329.74
2019-04-21T23:19:07.488Z,101320.41
2019-04-21T23:21:30.363Z,101320.41
2019-04-21T23:24:05.758Z,101319.55
2019-04-21T23:26:37.556Z,101315.72
2019-04-21T23:29:10.664Z,101319.20
2019-04-21T23:31:39.830Z,101312.97
2019-04-21T23:33:52.437Z,101308.91
2019-04-21T23:36:26.290Z,101308.56
2019-04-21T23:38:55.030Z,101302.47
2019-04-21T23:41:27.228Z,101300.25
2019-04-21T23:44:00.611Z,101296.62
2019-04-21T23:46:28.291Z,101293.23
2019-04-21T23:49:07.098Z,101295.53
2019-04-21T23:51:37.001Z,101289.39
2019-04-21T23:53:55.447Z,101289.52
2019-04-21T23:56:30.066Z,101280.42
2019-04-21T23:59:02.629Z,101279.32
